CheckWX is a tool to help pilots better visualize weather data.  It is not intended as a substitute for an official pre-flight weather briefing.

12:25:19 UTC

SCNT TAF
Tte. Julio Gallardo Airport
Puerto Natales, Chile
TAF COR SCNT 221042Z 2212/2300 34006KT 8000 FEW015 SCT025 TN10/2212Z TX13/2218Z TEMPO 2212/2214 VRB05KT TEMPO 2214/2218 7000 -SHRA FEW010 BKN015 BECMG 2218/2220 05005KT BECMG 2222/2300 15003KT 2000 BR BCFG SCT007 BKN012

Mar-22@
12:00 UTC

Mar-22 @ 12:00 UTC

Mar-22@
18:00 UTC

Mar-22 @ 18:00 UTC

TAF COR SCNT 221042Z 2212/2300 34006KT 8000 FEW015 SCT025 TN10/2212Z TX13/2218Z
Wind
  • 340° at 6 KTS
Cloud Levels
  • Few at 1,500' AGL
  • Scattered at 2,500' AGL

Mar-22@
12:00 UTC

Mar-22 @ 12:00 UTC

Mar-22@
14:00 UTC

Mar-22 @ 14:00 UTC

TEMPO 2212/2214 VRB05KT

Temporary

Temporary Changes expected for less than half the time period

Wind
  • Variable at 5 KTS

Mar-22@
14:00 UTC

Mar-22 @ 14:00 UTC

Mar-22@
18:00 UTC

Mar-22 @ 18:00 UTC

TEMPO 2214/2218 7000 -SHRA FEW010 BKN015

Temporary

Temporary Changes expected for less than half the time period

Conditions
Light Rain
Cloud Levels
  • Few at 1,000' AGL
  • Broken at 1,500' AGL

Mar-22@
18:00 UTC

Mar-22 @ 18:00 UTC

Mar-22@
22:00 UTC

Mar-22 @ 22:00 UTC

BECMG 2218/2220 05005KT

Becoming

Becoming Conditions expected by Fri, Mar 22, 2019 @ 20:00 UTC

Wind
  • 050° at 5 KTS
Cloud Levels
  • Few at 1,500' AGL
  • Scattered at 2,500' AGL

Mar-22@
22:00 UTC

Mar-22 @ 22:00 UTC

Mar-23@
00:00 UTC

Mar-23 @ 00:00 UTC

BECMG 2222/2300 15003KT 2000 BR BCFG SCT007 BKN012

Becoming

Becoming Conditions expected by Sat, Mar 23, 2019 @ 00:00 UTC

Wind
  • 150° at 3 KTS
Conditions
Mist, Patches of Fog
Cloud Levels
  • Scattered at 700' AGL
  • Broken at 1,200' AGL